sensor_id;sensor_type;location;lat;lon;timestamp;pressure;altitude;pressure_sealevel;temperature;humidity
50854;BME280;44154;45.506;-122.806;2023-02-21T00:02:11;101195.44;;;24.13;37.44
50854;BME280;44154;45.506;-122.806;2023-02-21T00:04:56;101183.81;;;24.06;37.70
50854;BME280;44154;45.506;-122.806;2023-02-21T00:07:40;101172.75;;;24.01;37.63
50854;BME280;44154;45.506;-122.806;2023-02-21T00:10:25;101157.66;;;23.98;37.62
50854;BME280;44154;45.506;-122.806;2023-02-21T00:13:09;101157.66;;;23.98;37.64
50854;BME280;44154;45.506;-122.806;2023-02-21T00:15:54;101153.84;;;23.99;37.72
50854;BME280;44154;45.506;-122.806;2023-02-21T00:18:39;101161.81;;;24.01;37.62
50854;BME280;44154;45.506;-122.806;2023-02-21T00:21:27;101157.19;;;24.01;37.85
50854;BME280;44154;45.506;-122.806;2023-02-21T00:24:13;101149.81;;;24.02;37.72
50854;BME280;44154;45.506;-122.806;2023-02-21T00:26:58;101149.19;;;24.00;37.87
50854;BME280;44154;45.506;-122.806;2023-02-21T00:29:43;101139.38;;;23.99;37.82
50854;BME280;44154;45.506;-122.806;2023-02-21T00:32:27;101125.34;;;23.95;37.60
50854;BME280;44154;45.506;-122.806;2023-02-21T00:35:12;101123.91;;;23.93;37.90
50854;BME280;44154;45.506;-122.806;2023-02-21T00:37:56;101150.66;;;23.90;38.04
50854;BME280;44154;45.506;-122.806;2023-02-21T00:40:41;101154.47;;;23.89;38.09
50854;BME280;44154;45.506;-122.806;2023-02-21T00:43:33;101134.53;;;23.89;37.89
50854;BME280;44154;45.506;-122.806;2023-02-21T00:46:20;101126.31;;;23.89;38.16
50854;BME280;44154;45.506;-122.806;2023-02-21T00:49:05;101105.94;;;23.97;37.16
50854;BME280;44154;45.506;-122.806;2023-02-21T00:51:50;101104.50;;;24.35;37.60
50854;BME280;44154;45.506;-122.806;2023-02-21T00:54:34;101110.00;;;24.86;36.71
50854;BME280;44154;45.506;-122.806;2023-02-21T00:57:18;101108.59;;;25.00;36.08
50854;BME280;44154;45.506;-122.806;2023-02-21T01:00:04;101081.88;;;24.90;36.00
50854;BME280;44154;45.506;-122.806;2023-02-21T01:02:49;101065.16;;;24.70;36.31
50854;BME280;44154;45.506;-122.806;2023-02-21T01:05:34;101049.03;;;24.39;36.73
50854;BME280;44154;45.506;-122.806;2023-02-21T01:08:18;101041.06;;;24.38;36.82
50854;BME280;44154;45.506;-122.806;2023-02-21T01:11:02;101047.84;;;24.18;37.63
50854;BME280;44154;45.506;-122.806;2023-02-21T01:13:47;101042.94;;;24.03;37.41
50854;BME280;44154;45.506;-122.806;2023-02-21T01:16:32;101049.03;;;23.94;37.77
50854;BME280;44154;45.506;-122.806;2023-02-21T01:19:17;101062.47;;;23.83;38.16
50854;BME280;44154;45.506;-122.806;2023-02-21T01:22:03;101069.75;;;23.78;38.22
50854;BME280;44154;45.506;-122.806;2023-02-21T01:24:49;101046.25;;;23.65;38.39
50854;BME280;44154;45.506;-122.806;2023-02-21T01:27:34;101059.44;;;23.68;38.35
50854;BME280;44154;45.506;-122.806;2023-02-21T01:30:19;101048.47;;;23.92;37.81
50854;BME280;44154;45.506;-122.806;2023-02-21T01:33:03;101025.31;;;24.45;37.10
50854;BME280;44154;45.506;-122.806;2023-02-21T01:35:48;101017.19;;;24.84;36.12
50854;BME280;44154;45.506;-122.806;2023-02-21T01:38:36;101029.72;;;24.80;35.98
50854;BME280;44154;45.506;-122.806;2023-02-21T01:41:21;101025.81;;;24.59;36.44
50854;BME280;44154;45.506;-122.806;2023-02-21T01:44:31;101020.75;;;24.34;36.89
50854;BME280;44154;45.506;-122.806;2023-02-21T01:47:16;101018.84;;;24.17;37.08
50854;BME280;44154;45.506;-122.806;2023-02-21T01:50:07;101007.38;;;24.03;37.36
50854;BME280;44154;45.506;-122.806;2023-02-21T01:52:52;100989.50;;;23.96;37.36
50854;BME280;44154;45.506;-122.806;2023-02-21T01:55:38;100984.63;;;23.86;37.62
50854;BME280;44154;45.506;-122.806;2023-02-21T01:58:24;100980.38;;;23.78;37.54
50854;BME280;44154;45.506;-122.806;2023-02-21T02:01:14;100964.41;;;23.70;37.70
50854;BME280;44154;45.506;-122.806;2023-02-21T02:04:01;100967.50;;;23.62;37.71
50854;BME280;44154;45.506;-122.806;2023-02-21T02:06:46;100954.53;;;23.69;37.47
50854;BME280;44154;45.506;-122.806;2023-02-21T02:09:31;100946.91;;;24.17;36.88
50854;BME280;44154;45.506;-122.806;2023-02-21T02:18:08;100948.28;;;24.70;35.62
50854;BME280;44154;45.506;-122.806;2023-02-21T02:35:19;100898.19;;;23.97;37.29
50854;BME280;44154;45.506;-122.806;2023-02-21T02:38:15;100901.09;;;23.90;37.39
50854;BME280;44154;45.506;-122.806;2023-02-21T02:44:08;100870.63;;;23.69;38.01
50854;BME280;44154;45.506;-122.806;2023-02-21T02:46:39;100887.38;;;23.73;38.30
50854;BME280;44154;45.506;-122.806;2023-02-21T02:49:27;100876.97;;;23.70;38.39
50854;BME280;44154;45.506;-122.806;2023-02-21T02:52:02;100871.38;;;23.65;38.48
50854;BME280;44154;45.506;-122.806;2023-02-21T02:54:28;100851.94;;;23.61;38.57
50854;BME280;44154;45.506;-122.806;2023-02-21T02:56:55;100834.38;;;23.57;38.58
50854;BME280;44154;45.506;-122.806;2023-02-21T02:59:24;100834.38;;;23.57;38.32
50854;BME280;44154;45.506;-122.806;2023-02-21T03:04:54;100820.47;;;23.59;37.65
50854;BME280;44154;45.506;-122.806;2023-02-21T03:07:38;100816.88;;;23.87;37.99
50854;BME280;44154;45.506;-122.806;2023-02-21T03:13:04;100832.06;;;24.78;36.54
50854;BME280;44154;45.506;-122.806;2023-02-21T03:18:33;100803.84;;;24.55;36.95
50854;BME280;44154;45.506;-122.806;2023-02-21T03:21:04;100809.63;;;24.37;37.22
50854;BME280;44154;45.506;-122.806;2023-02-21T03:23:34;100822.53;;;24.19;37.42
50854;BME280;44154;45.506;-122.806;2023-02-21T03:26:04;100837.72;;;24.10;37.74
50854;BME280;44154;45.506;-122.806;2023-02-21T03:28:32;100820.16;;;23.89;38.47
50854;BME280;44154;45.506;-122.806;2023-02-21T03:30:59;100834.75;;;23.95;41.01
50854;BME280;44154;45.506;-122.806;2023-02-21T03:33:28;100833.03;;;24.28;41.45
50854;BME280;44154;45.506;-122.806;2023-02-21T03:35:58;100834.97;;;24.49;39.29
50854;BME280;44154;45.506;-122.806;2023-02-21T03:38:29;100834.47;;;24.52;38.72
50854;BME280;44154;45.506;-122.806;2023-02-21T03:40:56;100827.28;;;24.46;38.66
50854;BME280;44154;45.506;-122.806;2023-02-21T03:43:22;100810.31;;;24.27;38.70
50854;BME280;44154;45.506;-122.806;2023-02-21T03:45:48;100793.00;;;24.21;38.85
50854;BME280;44154;45.506;-122.806;2023-02-21T03:48:14;100807.69;;;24.15;39.16
50854;BME280;44154;45.506;-122.806;2023-02-21T03:50:41;100799.59;;;24.03;39.94
50854;BME280;44154;45.506;-122.806;2023-02-21T03:53:08;100778.16;;;23.95;39.95
50854;BME280;44154;45.506;-122.806;2023-02-21T03:55:35;100743.25;;;23.85;39.79
50854;BME280;44154;45.506;-122.806;2023-02-21T03:58:01;100741.88;;;23.83;40.00
50854;BME280;44154;45.506;-122.806;2023-02-21T04:00:27;100735.00;;;23.80;39.61
50854;BME280;44154;45.506;-122.806;2023-02-21T04:02:53;100730.34;;;23.81;39.68
50854;BME280;44154;45.506;-122.806;2023-02-21T04:05:20;100720.44;;;23.75;39.50
50854;BME280;44154;45.506;-122.806;2023-02-21T04:07:46;100705.63;;;23.70;39.68
50854;BME280;44154;45.506;-122.806;2023-02-21T04:10:12;100687.25;;;23.66;39.57
50854;BME280;44154;45.506;-122.806;2023-02-21T04:12:39;100676.56;;;23.64;39.42
50854;BME280;44154;45.506;-122.806;2023-02-21T04:15:07;100669.16;;;23.60;40.04
50854;BME280;44154;45.506;-122.806;2023-02-21T04:17:33;100673.31;;;23.84;39.80
50854;BME280;44154;45.506;-122.806;2023-02-21T04:19:59;100671.09;;;24.25;39.35
50854;BME280;44154;45.506;-122.806;2023-02-21T04:22:25;100666.88;;;24.62;38.26
50854;BME280;44154;45.506;-122.806;2023-02-21T04:24:51;100680.94;;;24.76;38.69
50854;BME280;44154;45.506;-122.806;2023-02-21T04:27:17;100678.06;;;24.61;37.96
50854;BME280;44154;45.506;-122.806;2023-02-21T04:29:44;100664.19;;;24.45;38.43
50854;BME280;44154;45.506;-122.806;2023-02-21T04:32:10;100659.41;;;24.30;38.56
50854;BME280;44154;45.506;-122.806;2023-02-21T04:34:36;100672.38;;;24.18;38.71
50854;BME280;44154;45.506;-122.806;2023-02-21T04:37:02;100648.41;;;24.03;39.13
50854;BME280;44154;45.506;-122.806;2023-02-21T04:39:29;100580.69;;;23.66;38.96
50854;BME280;44154;45.506;-122.806;2023-02-21T04:41:55;100610.09;;;23.81;39.09
50854;BME280;44154;45.506;-122.806;2023-02-21T04:44:21;100624.34;;;23.83;39.17
50854;BME280;44154;45.506;-122.806;2023-02-21T04:46:47;100636.28;;;23.77;39.17
50854;BME280;44154;45.506;-122.806;2023-02-21T04:49:14;100601.91;;;23.59;39.21
50854;BME280;44154;45.506;-122.806;2023-02-21T04:51:40;100612.16;;;23.68;39.09
50854;BME280;44154;45.506;-122.806;2023-02-21T04:54:06;100595.84;;;23.56;38.58
50854;BME280;44154;45.506;-122.806;2023-02-21T04:56:32;100606.97;;;23.89;39.87
50854;BME280;44154;45.506;-122.806;2023-02-21T04:58:59;100596.63;;;24.18;39.34
50854;BME280;44154;45.506;-122.806;2023-02-21T05:01:28;100593.16;;;24.55;38.62
50854;BME280;44154;45.506;-122.806;2023-02-21T05:03:56;100599.06;;;24.69;37.86
50854;BME280;44154;45.506;-122.806;2023-02-21T05:06:24;100586.88;;;24.55;37.80
50854;BME280;44154;45.506;-122.806;2023-02-21T05:08:51;100589.13;;;24.36;38.12
50854;BME280;44154;45.506;-122.806;2023-02-21T05:11:19;100606.34;;;24.31;38.42
50854;BME280;44154;45.506;-122.806;2023-02-21T05:13:45;100592.75;;;24.14;38.56
50854;BME280;44154;45.506;-122.806;2023-02-21T05:16:12;100585.59;;;24.08;38.47
50854;BME280;44154;45.506;-122.806;2023-02-21T05:18:41;100570.47;;;24.00;38.58
50854;BME280;44154;45.506;-122.806;2023-02-21T05:21:08;100558.66;;;23.95;39.06
50854;BME280;44154;45.506;-122.806;2023-02-21T05:23:34;100555.84;;;23.89;38.59
50854;BME280;44154;45.506;-122.806;2023-02-21T05:26:12;100545.66;;;23.85;38.75
50854;BME280;44154;45.506;-122.806;2023-02-21T05:28:39;100548.09;;;23.81;38.71
50854;BME280;44154;45.506;-122.806;2023-02-21T05:31:06;100547.78;;;23.78;38.67
50854;BME280;44154;45.506;-122.806;2023-02-21T05:33:33;100537.03;;;23.71;38.74
50854;BME280;44154;45.506;-122.806;2023-02-21T05:35:59;100540.34;;;23.95;39.23
50854;BME280;44154;45.506;-122.806;2023-02-21T05:38:26;100513.59;;;24.30;38.45
50854;BME280;44154;45.506;-122.806;2023-02-21T05:40:52;100484.47;;;24.46;38.04
50854;BME280;44154;45.506;-122.806;2023-02-21T05:43:18;100489.34;;;24.71;37.50
50854;BME280;44154;45.506;-122.806;2023-02-21T05:45:45;100475.88;;;24.64;37.47
50854;BME280;44154;45.506;-122.806;2023-02-21T05:48:11;100472.72;;;24.50;37.62
50854;BME280;44154;45.506;-122.806;2023-02-21T05:50:37;100475.09;;;24.36;37.96
50854;BME280;44154;45.506;-122.806;2023-02-21T05:53:04;100488.44;;;24.28;38.01
50854;BME280;44154;45.506;-122.806;2023-02-21T05:55:30;100484.50;;;24.18;37.98
50854;BME280;44154;45.506;-122.806;2023-02-21T05:57:56;100493.22;;;24.10;38.22
50854;BME280;44154;45.506;-122.806;2023-02-21T06:00:28;100487.13;;;24.03;38.26
50854;BME280;44154;45.506;-122.806;2023-02-21T06:02:54;100490.06;;;23.96;38.52
50854;BME280;44154;45.506;-122.806;2023-02-21T06:05:22;100470.31;;;23.89;38.65
50854;BME280;44154;45.506;-122.806;2023-02-21T06:07:48;100462.00;;;23.84;38.49
50854;BME280;44154;45.506;-122.806;2023-02-21T06:10:15;100456.25;;;23.80;38.52
50854;BME280;44154;45.506;-122.806;2023-02-21T06:12:42;100445.78;;;23.72;38.63
50854;BME280;44154;45.506;-122.806;2023-02-21T06:15:08;100431.59;;;23.75;38.41
50854;BME280;44154;45.506;-122.806;2023-02-21T06:17:39;100426.72;;;24.04;38.87
50854;BME280;44154;45.506;-122.806;2023-02-21T06:20:07;100425.03;;;24.36;38.17
50854;BME280;44154;45.506;-122.806;2023-02-21T06:22:33;100413.25;;;24.68;37.51
50854;BME280;44154;45.506;-122.806;2023-02-21T06:24:59;100387.78;;;24.67;37.10
50854;BME280;44154;45.506;-122.806;2023-02-21T06:27:26;100382.75;;;24.54;37.45
50854;BME280;44154;45.506;-122.806;2023-02-21T06:29:52;100362.97;;;24.36;37.67
50854;BME280;44154;45.506;-122.806;2023-02-21T06:32:18;100370.25;;;24.25;37.87
50854;BME280;44154;45.506;-122.806;2023-02-21T06:34:44;100367.94;;;24.07;37.91
50854;BME280;44154;45.506;-122.806;2023-02-21T06:37:10;100374.25;;;24.07;38.39
50854;BME280;44154;45.506;-122.806;2023-02-21T06:39:39;100332.31;;;23.92;38.32
50854;BME280;44154;45.506;-122.806;2023-02-21T06:42:05;100356.41;;;24.00;38.02
50854;BME280;44154;45.506;-122.806;2023-02-21T06:44:32;100344.75;;;23.82;38.48
50854;BME280;44154;45.506;-122.806;2023-02-21T06:46:58;100353.28;;;23.86;38.35
50854;BME280;44154;45.506;-122.806;2023-02-21T06:49:24;100357.34;;;23.83;38.26
50854;BME280;44154;45.506;-122.806;2023-02-21T06:51:50;100335.41;;;23.73;38.27
50854;BME280;44154;45.506;-122.806;2023-02-21T06:54:16;100335.41;;;23.73;38.20
50854;BME280;44154;45.506;-122.806;2023-02-21T06:56:42;100349.06;;;23.73;38.21
50854;BME280;44154;45.506;-122.806;2023-02-21T06:59:09;100333.94;;;23.93;39.26
50854;BME280;44154;45.506;-122.806;2023-02-21T07:01:35;100331.13;;;24.20;38.21
50854;BME280;44154;45.506;-122.806;2023-02-21T07:04:01;100332.16;;;24.56;37.42
50854;BME280;44154;45.506;-122.806;2023-02-21T07:06:28;100297.13;;;24.58;36.96
50854;BME280;44154;45.506;-122.806;2023-02-21T07:08:55;100320.19;;;24.63;36.90
50854;BME280;44154;45.506;-122.806;2023-02-21T07:11:22;100326.13;;;24.49;36.94
50854;BME280;44154;45.506;-122.806;2023-02-21T07:13:52;100300.00;;;24.26;37.37
50854;BME280;44154;45.506;-122.806;2023-02-21T07:16:19;100288.22;;;24.20;37.45
50854;BME280;44154;45.506;-122.806;2023-02-21T07:18:46;100290.34;;;24.13;37.38
50854;BME280;44154;45.506;-122.806;2023-02-21T07:21:13;100296.38;;;24.10;37.63
50854;BME280;44154;45.506;-122.806;2023-02-21T07:23:41;100304.50;;;24.05;37.96
50854;BME280;44154;45.506;-122.806;2023-02-21T07:26:07;100318.97;;;24.00;37.96
50854;BME280;44154;45.506;-122.806;2023-02-21T07:28:34;100326.31;;;23.95;38.27
50854;BME280;44154;45.506;-122.806;2023-02-21T07:31:00;100323.53;;;23.89;38.38
50854;BME280;44154;45.506;-122.806;2023-02-21T07:33:26;100323.47;;;23.84;38.62
50854;BME280;44154;45.506;-122.806;2023-02-21T07:35:52;100333.31;;;23.85;38.60
50854;BME280;44154;45.506;-122.806;2023-02-21T07:38:20;100340.97;;;23.83;38.39
50854;BME280;44154;45.506;-122.806;2023-02-21T07:40:47;100346.94;;;23.80;38.49
50854;BME280;44154;45.506;-122.806;2023-02-21T07:43:13;100330.47;;;23.70;38.33
50854;BME280;44154;45.506;-122.806;2023-02-21T07:45:39;100336.75;;;23.70;39.22
50854;BME280;44154;45.506;-122.806;2023-02-21T07:48:05;100332.88;;;23.66;38.54
50854;BME280;44154;45.506;-122.806;2023-02-21T07:50:31;100333.66;;;23.62;38.84
50854;BME280;44154;45.506;-122.806;2023-02-21T07:52:57;100336.88;;;23.53;39.32
50854;BME280;44154;45.506;-122.806;2023-02-21T07:55:25;100335.97;;;23.43;39.37
50854;BME280;44154;45.506;-122.806;2023-02-21T07:57:51;100337.59;;;23.44;39.31
50854;BME280;44154;45.506;-122.806;2023-02-21T08:00:17;100295.56;;;23.17;39.47
50854;BME280;44154;45.506;-122.806;2023-02-21T08:02:47;100335.63;;;23.39;39.41
50854;BME280;44154;45.506;-122.806;2023-02-21T08:05:15;100330.44;;;23.37;39.57
50854;BME280;44154;45.506;-122.806;2023-02-21T08:07:41;100328.16;;;23.29;39.06
50854;BME280;44154;45.506;-122.806;2023-02-21T08:10:08;100319.75;;;23.31;39.03
50854;BME280;44154;45.506;-122.806;2023-02-21T08:12:34;100329.34;;;23.38;38.81
50854;BME280;44154;45.506;-122.806;2023-02-21T08:15:00;100335.09;;;23.37;38.86
50854;BME280;44154;45.506;-122.806;2023-02-21T08:17:26;100321.09;;;23.33;38.81
50854;BME280;44154;45.506;-122.806;2023-02-21T08:19:52;100329.03;;;23.35;38.94
50854;BME280;44154;45.506;-122.806;2023-02-21T08:22:19;100317.00;;;23.31;39.02
50854;BME280;44154;45.506;-122.806;2023-02-21T08:24:47;100318.97;;;23.35;38.99
50854;BME280;44154;45.506;-122.806;2023-02-21T08:27:13;100329.88;;;23.35;39.02
50854;BME280;44154;45.506;-122.806;2023-02-21T08:29:39;100331.50;;;23.36;39.10
50854;BME280;44154;45.506;-122.806;2023-02-21T08:32:05;100346.25;;;23.35;38.98
50854;BME280;44154;45.506;-122.806;2023-02-21T08:34:32;100349.56;;;23.37;38.99
50854;BME280;44154;45.506;-122.806;2023-02-21T08:36:58;100341.63;;;23.36;38.76
50854;BME280;44154;45.506;-122.806;2023-02-21T08:39:24;100351.41;;;23.32;38.58
50854;BME280;44154;45.506;-122.806;2023-02-21T08:41:55;100351.91;;;23.29;38.73
50854;BME280;44154;45.506;-122.806;2023-02-21T08:44:21;100348.13;;;23.30;38.68
50854;BME280;44154;45.506;-122.806;2023-02-21T08:46:48;100333.53;;;23.19;38.85
50854;BME280;44154;45.506;-122.806;2023-02-21T08:49:14;100349.72;;;23.26;38.76
50854;BME280;44154;45.506;-122.806;2023-02-21T08:51:40;100360.06;;;23.24;38.77
50854;BME280;44154;45.506;-122.806;2023-02-21T08:54:06;100373.13;;;23.21;39.18
50854;BME280;44154;45.506;-122.806;2023-02-21T08:56:33;100362.22;;;23.21;38.98
50854;BME280;44154;45.506;-122.806;2023-02-21T08:58:59;100360.56;;;23.20;38.96
50854;BME280;44154;45.506;-122.806;2023-02-21T09:01:33;100369.34;;;23.23;38.87
50854;BME280;44154;45.506;-122.806;2023-02-21T09:04:01;100378.34;;;23.23;38.72
50854;BME280;44154;45.506;-122.806;2023-02-21T09:06:27;100372.31;;;23.21;38.77
50854;BME280;44154;45.506;-122.806;2023-02-21T09:08:53;100350.38;;;23.11;38.68
50854;BME280;44154;45.506;-122.806;2023-02-21T09:11:20;100353.91;;;23.11;38.80
50854;BME280;44154;45.506;-122.806;2023-02-21T09:13:46;100363.78;;;23.12;38.69
50854;BME280;44154;45.506;-122.806;2023-02-21T09:16:12;100355.56;;;23.12;38.64
50854;BME280;44154;45.506;-122.806;2023-02-21T09:18:38;100357.69;;;23.10;38.67
50854;BME280;44154;45.506;-122.806;2023-02-21T09:21:05;100351.59;;;23.03;38.64
50854;BME280;44154;45.506;-122.806;2023-02-21T09:23:32;100381.13;;;23.06;38.77
50854;BME280;44154;45.506;-122.806;2023-02-21T09:25:58;100381.13;;;23.06;38.79
50854;BME280;44154;45.506;-122.806;2023-02-21T09:28:24;100367.72;;;23.04;38.79
50854;BME280;44154;45.506;-122.806;2023-02-21T09:30:50;100371.28;;;23.05;38.68
50854;BME280;44154;45.506;-122.806;2023-02-21T09:33:16;100380.56;;;23.04;38.62
50854;BME280;44154;45.506;-122.806;2023-02-21T09:35:43;100369.91;;;23.02;38.60
50854;BME280;44154;45.506;-122.806;2023-02-21T09:38:09;100375.03;;;22.99;38.55
50854;BME280;44154;45.506;-122.806;2023-02-21T09:43:06;100369.53;;;22.94;38.63
50854;BME280;44154;45.506;-122.806;2023-02-21T09:45:36;100379.03;;;22.91;38.58
50854;BME280;44154;45.506;-122.806;2023-02-21T09:48:10;100388.03;;;22.92;38.74
50854;BME280;44154;45.506;-122.806;2023-02-21T09:50:48;100376.75;;;23.27;43.29
50854;BME280;44154;45.506;-122.806;2023-02-21T09:53:33;100386.13;;;23.64;41.52
50854;BME280;44154;45.506;-122.806;2023-02-21T09:56:20;100384.59;;;23.73;39.67
50854;BME280;44154;45.506;-122.806;2023-02-21T09:58:50;100392.81;;;23.78;38.85
50854;BME280;44154;45.506;-122.806;2023-02-21T10:04:09;100393.09;;;23.49;39.07
50854;BME280;44154;45.506;-122.806;2023-02-21T10:09:55;100392.22;;;23.16;39.40
50854;BME280;44154;45.506;-122.806;2023-02-21T10:12:33;100327.06;;;22.81;39.48
50854;BME280;44154;45.506;-122.806;2023-02-21T10:17:58;100362.91;;;22.90;40.08
50854;BME280;44154;45.506;-122.806;2023-02-21T10:20:39;100364.50;;;22.85;40.85
50854;BME280;44154;45.506;-122.806;2023-02-21T10:23:24;100356.13;;;23.14;43.39
50854;BME280;44154;45.506;-122.806;2023-02-21T10:25:57;100350.44;;;23.43;41.53
50854;BME280;44154;45.506;-122.806;2023-02-21T10:28:27;100344.41;;;23.68;42.37
50854;BME280;44154;45.506;-122.806;2023-02-21T10:31:04;100343.53;;;23.68;41.89
50854;BME280;44154;45.506;-122.806;2023-02-21T10:33:35;100323.22;;;23.53;40.27
50854;BME280;44154;45.506;-122.806;2023-02-21T10:36:08;100326.91;;;23.42;40.11
50854;BME280;44154;45.506;-122.806;2023-02-21T10:38:34;100335.53;;;23.29;40.29
50854;BME280;44154;45.506;-122.806;2023-02-21T10:41:02;100323.69;;;23.18;40.33
50854;BME280;44154;45.506;-122.806;2023-02-21T10:43:48;100315.34;;;23.08;40.64
50854;BME280;44154;45.506;-122.806;2023-02-21T10:46:46;100306.25;;;22.97;40.32
50854;BME280;44154;45.506;-122.806;2023-02-21T10:52:17;100294.41;;;23.13;42.87
50854;BME280;44154;45.506;-122.806;2023-02-21T10:55:15;100299.06;;;23.40;41.75
50854;BME280;44154;45.506;-122.806;2023-02-21T10:57:43;100288.81;;;23.58;41.77
50854;BME280;44154;45.506;-122.806;2023-02-21T11:05:55;100295.47;;;23.34;40.60
50854;BME280;44154;45.506;-122.806;2023-02-21T11:08:40;100289.56;;;23.20;40.83
50854;BME280;44154;45.506;-122.806;2023-02-21T11:11:07;100293.28;;;23.09;40.70
50854;BME280;44154;45.506;-122.806;2023-02-21T11:13:33;100286.63;;;23.00;41.16
50854;BME280;44154;45.506;-122.806;2023-02-21T11:16:30;100276.66;;;22.89;41.12
50854;BME280;44154;45.506;-122.806;2023-02-21T11:19:06;100276.31;;;22.80;40.94
50854;BME280;44154;45.506;-122.806;2023-02-21T11:21:33;100280.09;;;23.01;42.56
50854;BME280;44154;45.506;-122.806;2023-02-21T11:24:04;100280.31;;;23.21;41.96
50854;BME280;44154;45.506;-122.806;2023-02-21T11:26:37;100282.75;;;23.50;40.69
50854;BME280;44154;45.506;-122.806;2023-02-21T11:29:12;100275.50;;;23.66;41.65
50854;BME280;44154;45.506;-122.806;2023-02-21T11:31:39;100261.22;;;23.54;42.07
50854;BME280;44154;45.506;-122.806;2023-02-21T11:34:07;100262.47;;;23.41;41.82
50854;BME280;44154;45.506;-122.806;2023-02-21T11:36:41;100254.97;;;23.26;40.65
50854;BME280;44154;45.506;-122.806;2023-02-21T11:39:22;100241.47;;;23.14;40.93
50854;BME280;44154;45.506;-122.806;2023-02-21T11:41:56;100239.19;;;23.06;40.85
50854;BME280;44154;45.506;-122.806;2023-02-21T11:44:27;100244.03;;;22.99;40.88
50854;BME280;44154;45.506;-122.806;2023-02-21T11:50:28;100222.69;;;22.91;42.77
50854;BME280;44154;45.506;-122.806;2023-02-21T11:53:05;100233.03;;;23.16;42.25
50854;BME280;44154;45.506;-122.806;2023-02-21T11:55:32;100237.03;;;23.35;41.39
50854;BME280;44154;45.506;-122.806;2023-02-21T12:01:00;100244.31;;;23.57;41.26
50854;BME280;44154;45.506;-122.806;2023-02-21T12:11:53;100239.16;;;23.01;40.95
50854;BME280;44154;45.506;-122.806;2023-02-21T12:26:03;100224.16;;;23.31;41.00
50854;BME280;44154;45.506;-122.806;2023-02-21T12:34:13;100203.22;;;23.42;40.65
50854;BME280;44154;45.506;-122.806;2023-02-21T12:37:13;100201.72;;;23.24;40.79
50854;BME280;44154;45.506;-122.806;2023-02-21T12:39:49;100205.34;;;23.07;40.49
50854;BME280;44154;45.506;-122.806;2023-02-21T12:50:53;100193.19;;;22.88;41.60
50854;BME280;44154;45.506;-122.806;2023-02-21T12:53:32;100185.81;;;23.15;41.17
50854;BME280;44154;45.506;-122.806;2023-02-21T12:59:29;100172.75;;;23.60;39.88
50854;BME280;44154;45.506;-122.806;2023-02-21T13:02:11;100161.78;;;23.50;40.21
50854;BME280;44154;45.506;-122.806;2023-02-21T13:04:53;100178.91;;;23.40;39.73
50854;BME280;44154;45.506;-122.806;2023-02-21T13:07:35;100167.84;;;23.19;40.05
50854;BME280;44154;45.506;-122.806;2023-02-21T13:10:18;100167.66;;;23.04;40.25
50854;BME280;44154;45.506;-122.806;2023-02-21T13:13:27;100170.31;;;22.94;40.33
50854;BME280;44154;45.506;-122.806;2023-02-21T13:15:59;100171.84;;;22.84;40.54
50854;BME280;44154;45.506;-122.806;2023-02-21T13:18:32;100169.34;;;22.78;40.44
50854;BME280;44154;45.506;-122.806;2023-02-21T13:24:17;100166.88;;;23.09;40.39
50854;BME280;44154;45.506;-122.806;2023-02-21T13:29:37;100175.72;;;23.53;39.24
50854;BME280;44154;45.506;-122.806;2023-02-21T13:32:15;100174.09;;;23.52;39.13
50854;BME280;44154;45.506;-122.806;2023-02-21T13:34:59;100168.19;;;23.33;39.25
50854;BME280;44154;45.506;-122.806;2023-02-21T13:37:29;100171.19;;;23.32;39.89
50854;BME280;44154;45.506;-122.806;2023-02-21T13:39:59;100165.28;;;23.45;39.34
50854;BME280;44154;45.506;-122.806;2023-02-21T13:42:34;100168.38;;;23.59;39.11
50854;BME280;44154;45.506;-122.806;2023-02-21T13:45:16;100159.78;;;23.83;38.58
50854;BME280;44154;45.506;-122.806;2023-02-21T13:53:16;100154.44;;;23.55;38.74
50854;BME280;44154;45.506;-122.806;2023-02-21T14:03:41;100134.41;;;23.45;39.13
50854;BME280;44154;45.506;-122.806;2023-02-21T14:08:43;100129.44;;;23.84;38.22
50854;BME280;44154;45.506;-122.806;2023-02-21T14:11:22;100136.66;;;23.96;37.89
50854;BME280;44154;45.506;-122.806;2023-02-21T14:13:55;100118.50;;;23.79;37.99
50854;BME280;44154;45.506;-122.806;2023-02-21T14:16:34;100130.50;;;23.73;38.24
50854;BME280;44154;45.506;-122.806;2023-02-21T14:19:09;100125.75;;;23.58;38.64
50854;BME280;44154;45.506;-122.806;2023-02-21T14:29:33;100100.97;;;23.70;38.46
50854;BME280;44154;45.506;-122.806;2023-02-21T14:34:38;100127.56;;;24.79;36.38
50854;BME280;44154;45.506;-122.806;2023-02-21T15:05:41;100063.81;;;24.73;36.27
50854;BME280;44154;45.506;-122.806;2023-02-21T15:08:21;100060.75;;;25.01;35.78
50854;BME280;44154;45.506;-122.806;2023-02-21T15:11:01;100050.66;;;24.75;36.34
50854;BME280;44154;45.506;-122.806;2023-02-21T15:13:34;100065.66;;;24.57;36.30
50854;BME280;44154;45.506;-122.806;2023-02-21T15:16:03;100064.00;;;24.36;36.67
50854;BME280;44154;45.506;-122.806;2023-02-21T15:18:32;100050.03;;;24.06;37.11
50854;BME280;44154;45.506;-122.806;2023-02-21T15:23:41;100069.09;;;23.91;37.49
50854;BME280;44154;45.506;-122.806;2023-02-21T15:26:26;100052.09;;;23.84;37.25
50854;BME280;44154;45.506;-122.806;2023-02-21T15:29:15;100043.63;;;23.80;37.92